To NAV CANADA Home Page Login to a new session Search on AWWS site Feedback and Comments Disclaimer Vers la page française équivalente Tips FAQ What's new on the site To the Forecasts and Observations / NOTAM section To "File a Flight Plan" website Publications and other links Update of the User's profile FIC Telephone Numbers My Weather Data Folder Route Weather Data Regional Weather Data Local Weather Data To the Forecasts and Observations / NOTAM section
Request Generated 05/22/2015 at 14:27:30 UTC . Weather information available at that time is displayed.

METAR/TAF

MONCTON/GREATER MONCTON INTL/NB    

METAR CYQM 221400Z 18016KT 15SM FEW025 OVC110 12/01 A2987 RMK SC1AC8
SC TR SLP117=
METAR CYQM 221300Z 16009KT 15SM OVC120 12/02 A2986 RMK AC8 SLP113=
METAR CYQM 221200Z 16009KT 15SM FEW080 BKN120 OVC160 10/02 A2987 RMK
AC1AC7AS1 AC TR SLP115=

TAF CYQM 221138Z 2212/2312 17008KT P6SM FEW080 OVC120
FM221500 18012G22KT P6SM SCT020 BKN080 TEMPO 2217/2221 6SM -SHRA
BR BKN020
FM222100 17010KT P6SM BKN030 TEMPO 2221/2224 BKN020
FM230200 24012KT P6SM -SHRA BKN015
FM230600 28012G22KT P6SM BKN025
FM231000 28012G22KT P6SM SCT025
RMK NXT FCST BY 221800Z=
Your time UTC time
Weather data provided by Environment Canada and NAV CANADA